Time;durP1;ratioP1;P1;durP2;ratioP2;P2;SDS_P1;SDS_P2;PMS_P1;PMS_P2;Temp;Humidity;BMP_temperature;BMP_pressure;BME280_temperature;BME280_humidity;BME280_pressure;Samples;Min_cycle;Max_cycle;Signal;HPM_P1;HPM_P2
2021/08/29 00:04:57;;;;;;;16.50;13.68;;;;;;;9.90;75.75;99644.65;254376;1101;116919;-65
2021/08/29 00:10:01;;;;;;;21.48;15.00;;;;;;;9.86;76.27;99637.35;255273;1101;116645;-66
2021/08/29 00:15:06;;;;;;;17.80;13.95;;;;;;;9.80;75.92;99639.89;255345;1102;116199;-66
2021/08/29 00:20:10;;;;;;;19.90;15.53;;;;;;;9.75;75.99;99642.47;254392;1101;116319;-66
2021/08/29 00:25:14;;;;;;;16.10;12.65;;;;;;;9.74;75.87;99638.19;255522;1097;115597;-64
2021/08/29 00:30:17;;;;;;;16.70;12.33;;;;;;;9.67;76.40;99634.82;254420;1101;116037;-66
2021/08/29 00:35:21;;;;;;;16.17;14.63;;;;;;;9.63;76.50;99638.17;255061;1101;115805;-67
2021/08/29 00:40:25;;;;;;;14.38;12.88;;;;;;;9.58;76.67;99630.88;254735;1104;116506;-66
2021/08/29 00:45:27;;;;;;;16.20;12.90;;;;;;;9.59;76.81;99632.50;254673;1101;115565;-67
2021/08/29 00:50:31;;;;;;;17.17;12.70;;;;;;;9.51;76.29;99635.48;255232;1101;116430;-66
2021/08/29 00:55:35;;;;;;;17.03;12.18;;;;;;;9.48;76.53;99633.28;256084;1101;115953;-67
2021/08/29 01:00:41;;;;;;;13.18;11.78;;;;;;;9.52;76.79;99637.11;254322;1103;115793;-67
2021/08/29 01:05:52;;;;;;;12.95;10.83;;;;;;;9.52;76.97;99633.64;255725;1104;195860;-67
2021/08/29 01:11:01;;;;;;;18.10;12.65;;;;;;;9.58;77.40;99640.70;254946;1097;115644;-65
2021/08/29 01:16:10;;;;;;;16.15;13.23;;;;;;;9.65;77.37;99633.43;254399;1097;115484;-68
2021/08/29 01:21:20;;;;;;;25.63;13.55;;;;;;;9.74;77.71;99634.71;255265;1101;115064;-68
2021/08/29 01:26:34;;;;;;;17.00;13.40;;;;;;;9.85;78.23;99633.07;255704;1101;115719;-68
2021/08/29 01:31:40;;;;;;;19.35;14.20;;;;;;;9.99;78.06;99629.14;257240;1101;115394;-68
2021/08/29 01:36:47;;;;;;;17.68;13.13;;;;;;;10.21;78.80;99634.69;257090;1103;115565;-67
2021/08/29 01:41:52;;;;;;;17.48;13.65;;;;;;;10.42;78.84;99634.86;257194;1103;115549;-68
2021/08/29 01:46:57;;;;;;;15.90;13.73;;;;;;;10.58;78.90;99641.31;256694;1103;115384;-69
2021/08/29 01:52:01;;;;;;;14.65;13.03;;;;;;;10.73;78.44;99632.78;255549;1104;116385;-67
2021/08/29 01:57:16;;;;;;;15.33;13.18;;;;;;;10.80;78.41;99636.94;256546;1104;115874;-67
2021/08/29 02:02:20;;;;;;;18.20;13.78;;;;;;;10.87;78.51;99620.80;255372;1096;115941;-67
2021/08/29 02:07:42;;;;;;;15.53;12.15;;;;;;;10.94;78.43;99626.80;254981;1104;115581;-67
2021/08/29 02:12:53;;;;;;;19.65;13.55;;;;;;;10.90;77.95;99622.18;254504;1103;115587;-66
2021/08/29 02:17:59;;;;;;;17.23;13.03;;;;;;;10.85;78.22;99608.75;254118;1104;115871;-68
2021/08/29 02:23:03;;;;;;;18.95;15.00;;;;;;;10.77;77.85;99617.94;254393;1101;114931;-66
2021/08/29 02:28:06;;;;;;;17.43;14.20;;;;;;;10.71;77.96;99611.70;255047;1101;116436;-66
2021/08/29 02:33:11;;;;;;;20.25;16.03;;;;;;;10.70;78.46;99604.74;254355;1101;115894;-67
2021/08/29 02:38:15;;;;;;;15.90;14.30;;;;;;;10.71;78.41;99613.55;254884;1102;115848;-66
2021/08/29 02:43:20;;;;;;;16.00;13.53;;;;;;;10.71;78.29;99602.89;255139;1096;121527;-66
2021/08/29 02:48:25;;;;;;;19.85;15.00;;;;;;;10.67;78.01;99599.91;254387;1101;115987;-67
2021/08/29 02:53:28;;;;;;;17.28;13.63;;;;;;;10.61;78.19;99597.39;254747;1097;115544;-66
2021/08/29 02:58:32;;;;;;;16.28;13.83;;;;;;;10.51;77.84;99589.19;255023;1101;117158;-66
2021/08/29 03:03:36;;;;;;;14.63;13.18;;;;;;;10.48;78.01;99587.00;255141;1101;115766;-67
2021/08/29 03:08:39;;;;;;;15.03;13.43;;;;;;;10.40;77.67;99585.52;254936;1104;116061;-67
2021/08/29 03:13:43;;;;;;;18.58;14.18;;;;;;;10.27;77.43;99581.28;256406;1101;115027;-67
2021/08/29 03:18:49;;;;;;;13.83;12.23;;;;;;;10.15;77.79;99588.45;256022;1096;115997;-67
2021/08/29 03:23:54;;;;;;;14.55;12.88;;;;;;;10.02;77.73;99584.21;254228;1101;116340;-67
2021/08/29 03:28:58;;;;;;;14.25;11.63;;;;;;;10.03;77.83;99588.49;257334;1101;117149;-66
2021/08/29 03:34:04;;;;;;;13.70;12.25;;;;;;;10.10;77.77;99591.00;257157;1104;116988;-65
2021/08/29 03:39:10;;;;;;;16.18;12.60;;;;;;;10.01;77.42;99581.78;257277;1101;116768;-64
2021/08/29 03:44:14;;;;;;;15.73;13.58;;;;;;;9.90;77.48;99586.07;256965;1104;116914;-64
2021/08/29 03:49:18;;;;;;;17.07;12.23;;;;;;;9.88;77.75;99587.34;256122;1103;116760;-66
2021/08/29 03:54:21;;;;;;;13.45;11.65;;;;;;;9.84;77.60;99575.54;256006;1101;116483;-65
2021/08/29 03:59:25;;;;;;;16.38;14.35;;;;;;;9.74;77.54;99579.63;254645;1104;117426;-65
2021/08/29 04:04:35;;;;;;;23.13;12.13;;;;;;;9.66;77.44;99582.63;254544;1104;116254;-66
2021/08/29 04:09:39;;;;;;;16.90;12.80;;;;;;;9.56;78.01;99594.89;254793;1101;115598;-66
2021/08/29 04:14:45;;;;;;;13.80;12.38;;;;;;;9.53;77.50;99590.83;254404;1101;115706;-66
2021/08/29 04:19:52;;;;;;;13.95;11.75;;;;;;;9.46;77.66;99598.14;255414;1101;116246;-65
2021/08/29 04:24:56;;;;;;;16.25;12.80;;;;;;;9.54;78.47;99597.78;254951;1101;115923;-66
2021/08/29 04:29:59;;;;;;;13.48;12.13;;;;;;;9.62;77.72;99591.30;255216;1101;115325;-66
2021/08/29 04:35:05;;;;;;;17.83;12.40;;;;;;;9.62;77.81;99586.80;254313;1101;115885;-66
2021/08/29 04:40:08;;;;;;;14.18;11.50;;;;;;;9.56;77.43;99579.73;255421;1103;115695;-67
2021/08/29 04:45:12;;;;;;;15.18;13.60;;;;;;;9.53;78.17;99585.52;254185;1103;115541;-68
2021/08/29 04:50:15;;;;;;;11.68;10.48;;;;;;;9.52;77.77;99577.76;255015;1094;115290;-67
2021/08/29 04:55:17;;;;;;;14.60;12.95;;;;;;;9.61;78.30;99574.53;254963;1103;115976;-68
2021/08/29 05:00:20;;;;;;;15.73;13.15;;;;;;;9.73;78.59;99577.19;255841;1103;116385;-67
2021/08/29 05:05:23;;;;;;;20.93;12.25;;;;;;;9.82;78.50;99580.28;254472;1104;115043;-68
2021/08/29 05:10:26;;;;;;;14.13;12.63;;;;;;;9.91;78.33;99593.02;256591;1102;115587;-67
2021/08/29 05:15:28;;;;;;;13.76;11.96;;;;;;;10.13;78.99;99620.64;255287;1102;116210;-66
2021/08/29 05:20:32;;;;;;;16.57;12.33;;;;;;;10.32;79.31;99613.36;254512;1103;115751;-67
2021/08/29 05:25:35;;;;;;;15.60;13.10;;;;;;;10.50;79.00;99611.55;254230;1104;116909;-67
2021/08/29 05:30:38;;;;;;;13.63;12.10;;;;;;;10.66;78.62;99605.48;255818;1101;116223;-68
2021/08/29 05:35:42;;;;;;;14.35;12.65;;;;;;;10.82;78.25;99609.22;256976;1103;116580;-67
2021/08/29 05:40:46;;;;;;;13.67;12.27;;;;;;;11.06;78.23;99616.86;257348;1101;116355;-65
2021/08/29 05:45:49;;;;;;;14.70;12.90;;;;;;;11.35;78.43;99611.46;256964;1101;117700;-64
2021/08/29 05:50:52;;;;;;;11.68;10.08;;;;;;;11.66;78.61;99613.55;255504;1097;116430;-64
2021/08/29 05:55:57;;;;;;;16.08;13.58;;;;;;;11.91;78.42;99601.66;254783;1102;117836;-68
2021/08/29 06:01:01;;;;;;;18.93;14.53;;;;;;;12.28;78.73;99599.98;254296;1104;116594;-67
2021/08/29 06:06:05;;;;;;;17.15;15.33;;;;;;;12.62;78.74;99591.81;255109;1102;117005;-67
2021/08/29 06:11:09;;;;;;;20.38;16.28;;;;;;;13.00;78.94;99586.31;254107;1102;117457;-69
2021/08/29 06:16:12;;;;;;;22.73;16.95;;;;;;;13.36;78.63;99579.42;255208;1101;115913;-67
2021/08/29 06:21:16;;;;;;;13.55;12.25;;;;;;;13.63;78.32;99581.20;254269;1103;115885;-67
2021/08/29 06:26:19;;;;;;;18.40;16.58;;;;;;;13.83;78.58;99587.48;254340;1101;115230;-67
2021/08/29 06:31:22;;;;;;;20.23;17.70;;;;;;;14.15;78.25;99587.38;255261;1101;115047;-66
2021/08/29 06:36:25;;;;;;;19.45;17.25;;;;;;;14.49;78.34;99576.27;254974;1101;116514;-69
2021/08/29 06:41:29;;;;;;;16.03;14.33;;;;;;;14.58;77.51;99576.57;254355;1101;116032;-68
2021/08/29 06:46:32;;;;;;;23.00;20.55;;;;;;;14.81;78.00;99570.70;254229;1104;115704;-70
2021/08/29 06:51:35;;;;;;;21.55;19.40;;;;;;;15.06;77.81;99573.41;254317;1101;115781;-67
2021/08/29 06:56:38;;;;;;;18.48;16.55;;;;;;;15.44;77.62;99579.31;254499;1101;115877;-68
2021/08/29 07:01:42;;;;;;;18.25;16.50;;;;;;;15.64;77.57;99579.30;254965;1097;116086;-69
2021/08/29 07:06:45;;;;;;;17.85;16.03;;;;;;;16.07;77.38;99585.92;255702;1102;115599;-68
2021/08/29 07:11:48;;;;;;;18.90;16.83;;;;;;;16.53;76.97;99577.64;256649;1101;115724;-67
2021/08/29 07:16:51;;;;;;;20.55;18.40;;;;;;;16.67;76.46;99584.06;257148;1102;116164;-69
2021/08/29 07:21:54;;;;;;;30.13;18.88;;;;;;;16.97;76.36;99583.06;257352;1101;116838;-68
2021/08/29 07:26:57;;;;;;;20.38;18.25;;;;;;;17.23;76.05;99582.86;255620;1101;116344;-69
2021/08/29 07:32:00;;;;;;;18.65;16.83;;;;;;;17.47;75.84;99576.44;256177;1101;117363;-69
2021/08/29 07:37:03;;;;;;;14.90;13.30;;;;;;;17.55;74.87;99585.80;255675;1102;117593;-69
2021/08/29 07:42:05;;;;;;;16.05;14.70;;;;;;;17.51;74.52;99582.06;257488;1101;115207;-68
2021/08/29 07:47:08;;;;;;;17.75;15.98;;;;;;;17.56;74.97;99582.02;255784;1102;115299;-67
2021/08/29 07:52:13;;;;;;;17.23;15.10;;;;;;;17.82;74.64;99579.91;254338;1101;115488;-69
2021/08/29 07:57:16;;;;;;;16.15;14.55;;;;;;;17.96;74.41;99585.43;254335;1101;116399;-68
2021/08/29 08:02:19;;;;;;;20.95;16.50;;;;;;;18.13;74.45;99591.16;254015;1102;116177;-68
2021/08/29 08:07:21;;;;;;;17.65;14.60;;;;;;;18.28;74.34;99590.98;254193;1097;116534;-67
2021/08/29 08:12:24;;;;;;;11.78;10.78;;;;;;;18.23;73.27;99588.34;254100;1101;117337;-67
2021/08/29 08:17:27;;;;;;;16.93;15.23;;;;;;;18.31;73.79;99589.61;254561;1101;116227;-68
2021/08/29 08:22:30;;;;;;;14.48;13.08;;;;;;;18.55;73.61;99576.87;254600;1103;116441;-68
2021/08/29 08:27:32;;;;;;;13.17;11.77;;;;;;;18.82;73.06;99578.94;254364;1101;115502;-70
2021/08/29 08:32:34;;;;;;;15.87;14.27;;;;;;;19.12;72.09;99581.17;254790;1104;115641;-69
2021/08/29 08:37:37;;;;;;;15.33;13.88;;;;;;;19.54;72.03;99576.73;254044;1102;116000;-68
2021/08/29 08:42:44;;;;;;;12.87;11.07;;;;;;;20.02;71.79;99574.45;254271;1097;115931;-67
2021/08/29 08:47:47;;;;;;;14.20;12.80;;;;;;;20.43;70.79;99579.88;254476;1103;115640;-68
2021/08/29 08:52:50;;;;;;;11.98;10.95;;;;;;;20.72;69.87;99578.71;253986;1097;116904;-69
2021/08/29 08:57:54;;;;;;;11.93;10.93;;;;;;;20.69;69.15;99573.90;254297;1103;116721;-68
2021/08/29 09:02:57;;;;;;;10.45;9.55;;;;;;;20.93;68.92;99577.13;255387;1101;116490;-68
2021/08/29 09:08:00;;;;;;;7.63;5.75;;;;;;;21.12;67.96;99574.23;254114;1101;116308;-68
2021/08/29 09:13:05;;;;;;;11.30;10.20;;;;;;;21.23;67.52;99564.78;254262;1102;117364;-68
2021/08/29 09:18:11;;;;;;;9.20;8.18;;;;;;;21.41;67.80;99568.38;253812;1101;118593;-68
2021/08/29 09:23:15;;;;;;;8.53;7.73;;;;;;;21.42;66.59;99559.14;255181;1101;116594;-69
2021/08/29 09:28:18;;;;;;;8.93;7.97;;;;;;;21.82;67.06;99562.69;256383;1101;116423;-68
2021/08/29 09:33:21;;;;;;;8.85;8.05;;;;;;;22.17;66.45;99555.50;256907;1103;115943;-68
2021/08/29 09:38:25;;;;;;;9.45;8.45;;;;;;;22.69;66.21;99550.94;257328;1102;117343;-68
2021/08/29 09:43:36;;;;;;;8.15;7.35;;;;;;;22.80;64.18;99548.73;257120;1101;115608;-67
2021/08/29 09:48:47;;;;;;;6.88;6.38;;;;;;;22.53;62.96;99546.30;254965;1102;115582;-69
2021/08/29 09:53:50;;;;;;;7.40;6.70;;;;;;;22.15;62.55;99541.44;254005;1102;116213;-68
2021/08/29 09:58:56;;;;;;;7.83;7.13;;;;;;;22.04;62.49;99549.06;254237;1101;115641;-68
2021/08/29 10:03:58;;;;;;;8.83;5.98;;;;;;;21.89;61.54;99546.77;254542;1101;115264;-68
2021/08/29 10:09:04;;;;;;;5.88;5.43;;;;;;;21.89;61.69;99540.54;254194;1101;116475;-68
2021/08/29 10:14:11;;;;;;;7.90;6.18;;;;;;;21.75;62.22;99538.72;254436;1103;114857;-67
2021/08/29 10:19:14;;;;;;;;;;;;;;;21.48;62.04;99542.43;254683;1096;115764;-66
2021/08/29 10:24:19;;;;;;;6.88;5.55;;;;;;;21.31;62.52;99552.39;255324;1101;103385;-68
2021/08/29 10:29:30;;;;;;;7.17;6.47;;;;;;;21.15;62.67;99554.64;254720;1102;116370;-68
2021/08/29 10:34:33;;;;;;;7.10;6.40;;;;;;;20.99;62.75;99561.55;254516;1101;116300;-67
2021/08/29 10:39:37;;;;;;;6.63;6.13;;;;;;;20.73;63.49;99569.48;255225;1101;116672;-67
2021/08/29 10:44:41;;;;;;;7.43;6.83;;;;;;;20.58;63.25;99575.22;254658;1097;117619;-67
2021/08/29 10:49:45;;;;;;;7.53;6.50;;;;;;;20.45;63.44;99566.04;254260;1104;116158;-67
2021/08/29 10:54:56;;;;;;;8.50;7.70;;;;;;;20.30;63.92;99563.61;254305;1104;117145;-67
2021/08/29 11:00:12;;;;;;;6.98;6.45;;;;;;;20.17;63.71;99565.25;256598;1104;114759;-66
2021/08/29 11:05:36;;;;;;;5.93;5.48;;;;;;;20.09;63.96;99560.53;255596;1102;115840;-68
2021/08/29 11:10:39;;;;;;;8.38;7.58;;;;;;;20.12;64.57;99554.52;254540;1103;117038;-67
2021/08/29 11:15:42;;;;;;;7.78;7.05;;;;;;;20.12;64.52;99560.73;254805;1101;115349;-66
2021/08/29 11:20:58;;;;;;;8.43;7.63;;;;;;;20.14;64.95;99555.02;255803;1101;115296;-66
2021/08/29 11:26:30;;;;;;;7.73;7.05;;;;;;;20.16;65.07;99555.52;255707;1101;115830;-67
2021/08/29 11:31:53;;;;;;;8.53;7.78;;;;;;;20.14;64.83;99566.65;256770;1101;116741;-70
2021/08/29 11:36:56;;;;;;;7.38;6.78;;;;;;;20.17;64.71;99562.54;255613;1101;115177;-70
2021/08/29 11:42:19;;;;;;;7.23;6.35;;;;;;;20.26;64.61;99555.29;256999;1103;114906;-71
2021/08/29 11:47:26;;;;;;;7.05;6.33;;;;;;;20.12;64.01;99560.73;257384;1101;116430;-69
2021/08/29 11:52:30;;;;;;;6.38;5.88;;;;;;;20.22;64.51;99548.08;255360;1101;115924;-69
2021/08/29 11:57:55;;;;;;;6.37;5.83;;;;;;;20.34;64.80;99548.38;254281;1103;116729;-68
2021/08/29 12:02:58;;;;;;;13.13;7.00;;;;;;;20.24;64.30;99549.38;256277;1104;116516;-68
2021/08/29 12:08:05;;;;;;;8.40;7.08;;;;;;;20.23;63.92;99542.36;254702;1104;116208;-70
2021/08/29 12:13:10;;;;;;;;;;;;;;;20.31;64.35;99540.85;254436;1104;116063;-70
2021/08/29 12:18:15;;;;;;;6.05;5.55;;;;;;;20.38;63.98;99539.38;255549;1103;103280;-68
2021/08/29 12:23:19;;;;;;;5.90;5.40;;;;;;;20.39;63.47;99535.56;254217;1104;115149;-67
2021/08/29 12:28:22;;;;;;;7.03;6.47;;;;;;;20.44;63.42;99543.58;254681;1100;116010;-67
2021/08/29 12:33:27;;;;;;;6.18;5.68;;;;;;;20.51;63.31;99538.52;254611;1101;115333;-67
2021/08/29 12:38:30;;;;;;;6.83;6.13;;;;;;;20.71;62.96;99539.98;255602;1101;115212;-68
2021/08/29 12:43:33;;;;;;;6.63;5.88;;;;;;;20.94;62.66;99545.41;254124;1103;115235;-68
2021/08/29 12:48:38;;;;;;;6.47;5.97;;;;;;;21.01;61.64;99543.88;255459;1101;115465;-68
2021/08/29 12:53:41;;;;;;;6.55;5.95;;;;;;;21.00;61.75;99536.06;255409;1102;114900;-70
2021/08/29 12:58:47;;;;;;;6.03;5.55;;;;;;;20.97;61.27;99525.83;254065;1096;115190;-70
2021/08/29 13:03:53;;;;;;;6.78;6.18;;;;;;;20.91;61.62;99525.15;254366;1104;115033;-70
2021/08/29 13:09:07;;;;;;;6.17;5.67;;;;;;;20.91;61.55;99517.02;255286;1097;115960;-68
2021/08/29 13:14:09;;;;;;;7.75;7.05;;;;;;;20.92;61.33;99517.82;254199;1102;115582;-69
2021/08/29 13:19:22;;;;;;;7.40;6.83;;;;;;;20.91;61.51;99514.31;255408;1103;116244;-70
2021/08/29 13:24:29;;;;;;;7.63;6.93;;;;;;;20.88;61.02;99498.67;254340;1103;115724;-70
2021/08/29 13:29:40;;;;;;;5.58;5.08;;;;;;;20.85;60.90;99507.41;254010;1104;119273;-71
2021/08/29 13:34:44;;;;;;;5.95;5.45;;;;;;;20.88;60.94;99509.50;254632;1103;116575;-70
2021/08/29 13:39:46;;;;;;;6.05;5.58;;;;;;;21.02;60.93;99515.67;257209;1103;115627;-69
2021/08/29 13:44:56;;;;;;;6.68;6.00;;;;;;;21.50;60.25;99515.00;256460;1102;115303;-69
2021/08/29 13:50:00;;;;;;;7.28;6.65;;;;;;;21.86;59.44;99503.97;257209;1103;115646;-68
2021/08/29 13:55:05;;;;;;;7.58;6.83;;;;;;;22.14;58.14;99507.27;254761;1104;115218;-69
2021/08/29 14:00:09;;;;;;;7.43;6.73;;;;;;;22.24;58.64;99498.02;254185;1104;116199;-68
2021/08/29 14:05:14;;;;;;;8.73;7.20;;;;;;;22.10;57.73;99492.72;255017;1103;115043;-68
2021/08/29 14:10:17;;;;;;;6.45;5.93;;;;;;;22.06;58.45;99513.46;254256;1096;115427;-69
2021/08/29 14:15:22;;;;;;;7.60;6.58;;;;;;;21.86;57.77;99506.69;255377;1104;115922;-69
2021/08/29 14:20:25;;;;;;;;;;;;;;;21.68;57.88;99502.33;254210;1102;117225;-68
2021/08/29 14:25:29;;;;;;;7.80;7.15;;;;;;;21.54;58.00;99507.05;255560;1102;103329;-68
2021/08/29 14:30:34;;;;;;;11.53;6.23;;;;;;;21.37;58.14;99507.78;254788;1101;116188;-68
2021/08/29 14:35:38;;;;;;;7.60;6.93;;;;;;;21.19;58.21;99504.13;254292;1104;115289;-68
2021/08/29 14:40:43;;;;;;;6.25;5.70;;;;;;;21.05;58.71;99501.51;254325;1104;115808;-67
2021/08/29 14:45:46;;;;;;;6.00;5.40;;;;;;;20.94;58.44;99497.44;254331;1102;116009;-69
2021/08/29 14:50:49;;;;;;;6.33;5.40;;;;;;;20.93;58.78;99493.13;254585;1101;116308;-68
2021/08/29 14:55:51;;;;;;;7.25;6.65;;;;;;;20.88;59.18;99498.67;254815;1101;115369;-69
2021/08/29 15:00:54;;;;;;;6.90;6.28;;;;;;;20.87;59.47;99512.52;256230;1101;115636;-70
2021/08/29 15:05:57;;;;;;;6.03;5.63;;;;;;;20.75;59.04;99497.64;254190;1103;115792;-70
2021/08/29 15:11:00;;;;;;;6.73;6.13;;;;;;;20.69;59.19;99501.57;254860;1104;116469;-70
2021/08/29 15:16:03;;;;;;;7.48;5.70;;;;;;;20.66;59.67;99510.30;254131;1102;115505;-69
2021/08/29 15:21:06;;;;;;;6.20;5.65;;;;;;;20.62;59.58;99505.80;255230;1104;116503;-69
2021/08/29 15:26:09;;;;;;;7.55;6.75;;;;;;;20.55;59.98;99505.42;254070;1104;115530;-70
2021/08/29 15:31:12;;;;;;;7.65;7.05;;;;;;;20.42;60.28;99502.47;254058;1103;115995;-70
2021/08/29 15:36:14;;;;;;;9.53;8.53;;;;;;;20.33;60.41;99500.75;257037;1103;115997;-70
2021/08/29 15:41:20;;;;;;;8.05;7.05;;;;;;;20.22;60.64;99496.66;256624;1104;114974;-69
2021/08/29 15:46:23;;;;;;;8.78;8.10;;;;;;;20.09;61.40;99490.98;254788;1096;117621;-68
2021/08/29 15:51:31;;;;;;;7.05;6.55;;;;;;;20.01;61.69;99485.47;255403;1104;115056;-69
2021/08/29 15:56:34;;;;;;;13.40;7.70;;;;;;;19.93;62.16;99486.17;257373;1101;114823;-68
2021/08/29 16:01:37;;;;;;;8.35;6.18;;;;;;;19.81;62.98;99490.21;256470;1102;116018;-69
2021/08/29 16:06:42;;;;;;;6.70;6.10;;;;;;;19.69;62.94;99491.80;255419;1101;116158;-69
2021/08/29 16:11:45;;;;;;;6.97;6.47;;;;;;;19.53;63.59;99482.40;254665;1102;115700;-69
2021/08/29 16:16:49;;;;;;;10.63;7.25;;;;;;;19.39;63.91;99487.75;254081;1103;115670;-70
2021/08/29 16:21:54;;;;;;;8.65;6.30;;;;;;;19.25;64.45;99495.85;255008;1103;116238;-69
2021/08/29 16:26:58;;;;;;;6.60;6.08;;;;;;;19.14;64.26;99495.22;254747;1103;115785;-69
2021/08/29 16:32:01;;;;;;;8.50;6.20;;;;;;;19.01;64.76;99493.27;254170;1102;116461;-69
2021/08/29 16:37:05;;;;;;;7.48;6.88;;;;;;;18.89;65.25;99494.85;254046;1097;115816;-69
2021/08/29 16:42:08;;;;;;;10.95;10.10;;;;;;;18.77;65.50;99498.00;254283;1101;116601;-69
2021/08/29 16:47:11;;;;;;;10.73;9.93;;;;;;;18.65;65.82;99503.84;254064;1103;116323;-68
2021/08/29 16:52:16;;;;;;;10.50;9.45;;;;;;;18.57;66.09;99503.69;254262;1101;116317;-66
2021/08/29 16:57:20;;;;;;;9.60;8.80;;;;;;;18.46;66.27;99505.73;254379;1097;115917;-67
2021/08/29 17:02:24;;;;;;;8.58;7.88;;;;;;;18.32;66.50;99504.86;254399;1096;115320;-67
2021/08/29 17:07:27;;;;;;;9.35;8.45;;;;;;;18.17;66.95;99505.86;254481;1097;116382;-68
2021/08/29 17:12:31;;;;;;;8.68;7.98;;;;;;;18.01;67.08;99510.66;254233;1102;116003;-66
2021/08/29 17:17:34;;;;;;;8.70;7.90;;;;;;;17.87;67.57;99511.64;255408;1101;116387;-68
2021/08/29 17:22:38;;;;;;;7.10;6.60;;;;;;;17.75;67.99;99509.34;255239;1097;117278;-68
2021/08/29 17:27:42;;;;;;;6.45;5.95;;;;;;;17.66;68.20;99511.88;255091;1102;116223;-66
2021/08/29 17:32:45;;;;;;;7.80;6.78;;;;;;;17.57;68.45;99518.95;255841;1096;115694;-67
2021/08/29 17:37:51;;;;;;;7.75;7.15;;;;;;;17.48;69.03;99515.27;256797;1101;115864;-66
2021/08/29 17:42:54;;;;;;;17.75;10.05;;;;;;;17.43;69.39;99516.11;255649;1097;115683;-69
2021/08/29 17:47:57;;;;;;;12.50;11.30;;;;;;;17.42;69.45;99521.81;254004;1104;116036;-66
2021/08/29 17:53:01;;;;;;;12.43;10.18;;;;;;;17.33;69.46;99528.90;257111;1103;117476;-67
2021/08/29 17:58:04;;;;;;;12.10;10.90;;;;;;;17.31;69.90;99526.48;255859;1104;116194;-67
2021/08/29 18:03:06;;;;;;;11.20;10.15;;;;;;;17.24;70.23;99525.20;255011;1103;115870;-67
2021/08/29 18:08:10;;;;;;;11.38;8.55;;;;;;;17.20;70.54;99524.16;254649;1099;115811;-66
2021/08/29 18:13:14;;;;;;;7.80;7.20;;;;;;;17.11;70.37;99534.77;255928;1103;115079;-67
2021/08/29 18:18:17;;;;;;;7.83;7.13;;;;;;;16.84;70.36;99543.30;255252;1101;114909;-66
2021/08/29 18:23:21;;;;;;;9.57;8.77;;;;;;;16.64;70.63;99540.75;254177;1102;116884;-68
2021/08/29 18:28:24;;;;;;;12.93;9.63;;;;;;;16.58;71.22;99547.21;254532;1101;115281;-68
2021/08/29 18:33:28;;;;;;;8.90;8.10;;;;;;;16.51;71.69;99553.70;256261;1101;119054;-68
2021/08/29 18:38:32;;;;;;;8.85;8.15;;;;;;;16.52;71.29;99543.73;254514;1101;115549;-69
2021/08/29 18:43:36;;;;;;;9.58;8.85;;;;;;;16.36;71.38;99553.80;255211;1104;114521;-69
2021/08/29 18:48:39;;;;;;;8.53;7.63;;;;;;;16.23;71.96;99540.13;255392;1104;115631;-68
2021/08/29 18:53:43;;;;;;;9.13;8.37;;;;;;;16.19;72.12;99558.73;254560;1103;114923;-69
2021/08/29 18:58:46;;;;;;;8.95;7.88;;;;;;;16.10;71.78;99555.00;254427;1097;115036;-67
2021/08/29 19:03:49;;;;;;;9.30;8.33;;;;;;;16.03;72.57;99557.98;254401;1101;115839;-67
2021/08/29 19:08:53;;;;;;;8.70;7.98;;;;;;;16.09;72.78;99564.95;254713;1101;115942;-66
2021/08/29 19:13:56;;;;;;;9.85;9.05;;;;;;;16.16;72.87;99561.97;254172;1101;116885;-66
2021/08/29 19:18:59;;;;;;;10.18;8.85;;;;;;;16.15;72.96;99561.16;254716;1103;119112;-66
2021/08/29 19:24:03;;;;;;;9.93;9.05;;;;;;;16.02;72.92;99558.25;254413;1101;115609;-68
2021/08/29 19:29:07;;;;;;;8.37;7.67;;;;;;;15.93;72.71;99562.57;255440;1101;116117;-67
2021/08/29 19:34:11;;;;;;;8.98;8.18;;;;;;;15.85;73.07;99557.78;255025;1104;115389;-67
2021/08/29 19:39:14;;;;;;;8.87;8.03;;;;;;;15.72;72.68;99557.27;256142;1104;115152;-66
2021/08/29 19:44:17;;;;;;;9.78;7.80;;;;;;;15.63;72.83;99548.14;255731;1101;116159;-67
2021/08/29 19:49:20;;;;;;;9.33;8.33;;;;;;;15.58;72.95;99552.75;257258;1101;115279;-67
2021/08/29 19:54:23;;;;;;;8.93;8.13;;;;;;;15.55;73.22;99558.63;257275;1102;115950;-67
2021/08/29 19:59:26;;;;;;;7.53;6.85;;;;;;;15.50;73.08;99556.75;257149;1102;115344;-66
2021/08/29 20:04:29;;;;;;;8.90;8.00;;;;;;;15.49;73.12;99555.94;257189;1102;117459;-68
2021/08/29 20:09:33;;;;;;;13.80;8.08;;;;;;;15.38;73.11;99545.47;257171;1104;116181;-66
2021/08/29 20:14:39;;;;;;;9.27;8.33;;;;;;;15.30;72.84;99546.81;255714;1104;117022;-67
2021/08/29 20:19:45;;;;;;;8.13;7.43;;;;;;;15.22;73.40;99551.95;254299;1102;115551;-67
2021/08/29 20:24:52;;;;;;;9.58;8.70;;;;;;;15.18;73.48;99543.63;256347;1103;115012;-67
2021/08/29 20:29:56;;;;;;;11.05;8.78;;;;;;;15.19;73.94;99537.17;255791;1104;115232;-66
2021/08/29 20:34:58;;;;;;;8.70;7.63;;;;;;;15.14;73.69;99529.92;254963;1104;116280;-66
2021/08/29 20:40:02;;;;;;;12.28;7.80;;;;;;;15.07;74.10;99526.70;254958;1102;116192;-66
2021/08/29 20:45:05;;;;;;;8.58;7.78;;;;;;;14.96;73.67;99530.48;254117;1096;116079;-66
2021/08/29 20:50:09;;;;;;;9.03;8.23;;;;;;;14.80;73.67;99512.75;255103;1097;115228;-66
2021/08/29 20:55:13;;;;;;;14.10;8.97;;;;;;;14.58;73.38;99513.00;254305;1096;115378;-65
2021/08/29 21:00:16;;;;;;;11.57;9.43;;;;;;;14.41;73.74;99518.58;254380;1097;116183;-67
2021/08/29 21:05:19;;;;;;;11.80;7.58;;;;;;;14.37;74.38;99519.38;254344;1097;116052;-66
2021/08/29 21:10:21;;;;;;;8.83;7.98;;;;;;;14.27;74.17;99509.42;254749;1101;116889;-67
2021/08/29 21:15:25;;;;;;;9.73;8.18;;;;;;;14.21;73.94;99513.15;254205;1101;115235;-66
2021/08/29 21:20:30;;;;;;;7.95;7.33;;;;;;;14.10;73.80;99506.13;254507;1101;115892;-66
2021/08/29 21:25:33;;;;;;;10.63;7.73;;;;;;;13.99;73.82;99512.55;254306;1102;114664;-67
2021/08/29 21:30:39;;;;;;;8.78;8.08;;;;;;;13.88;73.90;99509.01;255080;1097;116188;-65
2021/08/29 21:35:43;;;;;;;8.13;7.43;;;;;;;13.59;73.58;99516.64;254239;1096;115818;-66
2021/08/29 21:40:47;;;;;;;7.20;6.70;;;;;;;13.52;74.46;99516.05;255623;1104;116417;-66
2021/08/29 21:45:50;;;;;;;8.30;7.63;;;;;;;13.44;74.30;99520.05;254199;1102;115822;-67
2021/08/29 21:50:53;;;;;;;8.35;7.55;;;;;;;13.27;73.93;99518.58;254856;1104;116189;-66
2021/08/29 21:55:57;;;;;;;8.98;8.05;;;;;;;13.20;74.77;99516.11;256579;1104;116441;-66
2021/08/29 22:01:06;;;;;;;7.43;6.73;;;;;;;13.15;74.64;99516.88;257311;1103;115933;-67
2021/08/29 22:06:10;;;;;;;9.67;6.40;;;;;;;13.15;74.32;99510.69;256415;1104;115651;-66
2021/08/29 22:11:13;;;;;;;9.85;8.25;;;;;;;13.12;74.11;99506.69;255596;1104;116104;-66
2021/08/29 22:16:16;;;;;;;8.13;6.73;;;;;;;13.06;74.23;99512.25;255727;1101;117102;-67
2021/08/29 22:21:19;;;;;;;7.55;6.98;;;;;;;12.95;74.55;99506.00;256287;1096;116361;-66
2021/08/29 22:26:22;;;;;;;7.93;7.23;;;;;;;12.76;74.19;99510.13;255004;1096;115974;-67
2021/08/29 22:31:29;;;;;;;7.03;6.47;;;;;;;12.70;74.96;99516.49;254727;1103;116322;-67
2021/08/29 22:36:32;;;;;;;;;;;;;;;12.71;74.90;99523.45;254983;1102;115621;-67
2021/08/29 22:41:37;;;;;;;11.80;7.58;;;;;;;12.56;74.92;99512.59;256538;1101;103180;-68
2021/08/29 22:46:41;;;;;;;7.40;6.80;;;;;;;12.47;74.79;99518.42;254897;1104;115890;-68
2021/08/29 22:51:46;;;;;;;6.93;6.37;;;;;;;12.36;74.43;99518.56;255020;1104;115905;-66
2021/08/29 22:56:50;;;;;;;7.58;6.83;;;;;;;12.10;74.86;99520.96;255020;1104;115977;-67
2021/08/29 23:01:54;;;;;;;8.37;7.47;;;;;;;12.03;75.07;99516.86;254461;1102;117029;-67
2021/08/29 23:06:58;;;;;;;8.10;7.15;;;;;;;12.07;75.41;99499.27;254794;1103;140173;-66
2021/08/29 23:12:01;;;;;;;8.90;8.00;;;;;;;12.10;75.55;99504.92;254387;1104;116766;-66